sensor_id;sensor_type;location;lat;lon;timestamp;pressure;altitude;pressure_sealevel;temperature;humidity
13486;BME280;6815;59.336;17.998;2023-04-03T00:01:10;52165.00;;;-145.37;65.44
13486;BME280;6815;59.336;17.998;2023-04-03T00:03:36;52163.00;;;-145.37;65.31
13486;BME280;6815;59.336;17.998;2023-04-03T00:06:02;52184.97;;;-145.37;65.02
13486;BME280;6815;59.336;17.998;2023-04-03T00:08:28;52200.94;;;-145.37;65.54
13486;BME280;6815;59.336;17.998;2023-04-03T00:10:56;52208.94;;;-145.37;65.86
13486;BME280;6815;59.336;17.998;2023-04-03T00:13:22;52196.94;;;-145.37;65.48
13486;BME280;6815;59.336;17.998;2023-04-03T00:15:48;52161.03;;;-145.37;65.45
13486;BME280;6815;59.336;17.998;2023-04-03T00:18:13;52192.97;;;-145.37;65.77
13486;BME280;6815;59.336;17.998;2023-04-03T00:20:39;52153.03;;;-145.37;66.01
13486;BME280;6815;59.336;17.998;2023-04-03T00:23:04;52190.97;;;-145.37;66.00
13486;BME280;6815;59.336;17.998;2023-04-03T00:25:30;52186.97;;;-145.37;66.28
13486;BME280;6815;59.336;17.998;2023-04-03T00:27:55;52184.97;;;-145.37;65.91
13486;BME280;6815;59.336;17.998;2023-04-03T00:30:23;52182.97;;;-145.37;66.31
13486;BME280;6815;59.336;17.998;2023-04-03T00:32:49;52163.00;;;-145.37;65.65
13486;BME280;6815;59.336;17.998;2023-04-03T00:35:15;52155.03;;;-145.37;66.14
13486;BME280;6815;59.336;17.998;2023-04-03T00:37:42;52180.97;;;-145.37;66.14
13486;BME280;6815;59.336;17.998;2023-04-03T00:40:08;52180.97;;;-145.37;66.00
13486;BME280;6815;59.336;17.998;2023-04-03T00:42:36;52171.00;;;-145.37;66.33
13486;BME280;6815;59.336;17.998;2023-04-03T00:47:27;52173.00;;;-145.37;67.23
13486;BME280;6815;59.336;17.998;2023-04-03T00:49:53;52200.94;;;-145.37;67.56
13486;BME280;6815;59.336;17.998;2023-04-03T00:52:21;52125.09;;;-145.37;66.82
13486;BME280;6815;59.336;17.998;2023-04-03T00:54:50;52161.03;;;-145.37;67.08
13486;BME280;6815;59.336;17.998;2023-04-03T00:57:18;52198.94;;;-145.37;66.63
13486;BME280;6815;59.336;17.998;2023-04-03T00:59:50;52143.06;;;-145.37;67.69
13486;BME280;6815;59.336;17.998;2023-04-03T01:02:17;52177.00;;;-145.37;68.87
13486;BME280;6815;59.336;17.998;2023-04-03T01:04:43;52180.97;;;-145.37;68.03
13486;BME280;6815;59.336;17.998;2023-04-03T01:09:36;52161.03;;;-145.37;67.91
13486;BME280;6815;59.336;17.998;2023-04-03T01:12:24;52169.00;;;-145.37;67.95
13486;BME280;6815;59.336;17.998;2023-04-03T01:14:55;52165.00;;;-145.37;67.87
13486;BME280;6815;59.336;17.998;2023-04-03T01:22:59;52133.06;;;-145.37;68.49
13486;BME280;6815;59.336;17.998;2023-04-03T01:25:30;52182.97;;;-145.37;69.05
13486;BME280;6815;59.336;17.998;2023-04-03T01:27:56;52177.00;;;-145.37;68.68
13486;BME280;6815;59.336;17.998;2023-04-03T01:30:26;52151.03;;;-145.37;68.44
13486;BME280;6815;59.336;17.998;2023-04-03T01:32:56;52175.00;;;-145.37;69.07
13486;BME280;6815;59.336;17.998;2023-04-03T01:35:22;52169.00;;;-145.37;69.42
13486;BME280;6815;59.336;17.998;2023-04-03T01:37:47;52206.94;;;-145.37;69.67
13486;BME280;6815;59.336;17.998;2023-04-03T01:40:13;52157.03;;;-145.37;69.92
13486;BME280;6815;59.336;17.998;2023-04-03T01:42:38;52184.97;;;-145.37;69.57
13486;BME280;6815;59.336;17.998;2023-04-03T01:45:04;52113.09;;;-145.37;69.65
13486;BME280;6815;59.336;17.998;2023-04-03T01:47:30;52151.03;;;-145.37;69.20
13486;BME280;6815;59.336;17.998;2023-04-03T01:49:57;52125.09;;;-145.37;69.46
13486;BME280;6815;59.336;17.998;2023-04-03T01:52:22;52159.03;;;-145.37;69.64
13486;BME280;6815;59.336;17.998;2023-04-03T01:54:47;52161.03;;;-145.37;69.67
13486;BME280;6815;59.336;17.998;2023-04-03T01:57:13;52159.03;;;-145.37;70.10
13486;BME280;6815;59.336;17.998;2023-04-03T01:59:40;52131.06;;;-145.37;69.56
13486;BME280;6815;59.336;17.998;2023-04-03T02:02:05;52163.00;;;-145.37;69.86
13486;BME280;6815;59.336;17.998;2023-04-03T02:04:31;52143.06;;;-145.37;69.42
13486;BME280;6815;59.336;17.998;2023-04-03T02:06:56;52173.00;;;-145.37;69.65
13486;BME280;6815;59.336;17.998;2023-04-03T02:09:22;52151.03;;;-145.37;69.64
13486;BME280;6815;59.336;17.998;2023-04-03T02:11:47;52208.94;;;-145.37;70.01
13486;BME280;6815;59.336;17.998;2023-04-03T02:14:13;52178.97;;;-145.37;70.31
13486;BME280;6815;59.336;17.998;2023-04-03T02:16:38;52161.03;;;-145.37;69.83
13486;BME280;6815;59.336;17.998;2023-04-03T02:19:04;52145.03;;;-145.37;69.86
13486;BME280;6815;59.336;17.998;2023-04-03T02:21:29;52180.97;;;-145.37;70.53
13486;BME280;6815;59.336;17.998;2023-04-03T02:23:55;52155.03;;;-145.37;70.58
13486;BME280;6815;59.336;17.998;2023-04-03T02:26:23;52171.00;;;-145.37;70.86
13486;BME280;6815;59.336;17.998;2023-04-03T02:28:48;52159.03;;;-145.37;70.74
13486;BME280;6815;59.336;17.998;2023-04-03T02:31:16;52131.06;;;-145.37;70.50
13486;BME280;6815;59.336;17.998;2023-04-03T02:33:41;52180.97;;;-145.37;70.84
13486;BME280;6815;59.336;17.998;2023-04-03T02:36:08;52135.06;;;-145.37;70.60
13486;BME280;6815;59.336;17.998;2023-04-03T02:38:33;52177.00;;;-145.37;71.29
13486;BME280;6815;59.336;17.998;2023-04-03T02:41:04;52167.00;;;-145.37;71.35
13486;BME280;6815;59.336;17.998;2023-04-03T02:43:31;52117.09;;;-145.37;71.69
13486;BME280;6815;59.336;17.998;2023-04-03T02:45:57;52173.00;;;-145.37;71.71
13486;BME280;6815;59.336;17.998;2023-04-03T02:48:23;52171.00;;;-145.37;72.48
13486;BME280;6815;59.336;17.998;2023-04-03T02:50:48;52139.06;;;-145.37;72.25
13486;BME280;6815;59.336;17.998;2023-04-03T02:53:14;52194.94;;;-145.37;71.88
13486;BME280;6815;59.336;17.998;2023-04-03T02:55:40;52167.00;;;-145.37;72.15
13486;BME280;6815;59.336;17.998;2023-04-03T02:58:06;52145.03;;;-145.37;72.69
13486;BME280;6815;59.336;17.998;2023-04-03T03:00:32;52157.03;;;-145.37;72.85
13486;BME280;6815;59.336;17.998;2023-04-03T03:02:57;52133.06;;;-145.37;73.45
13486;BME280;6815;59.336;17.998;2023-04-03T03:05:23;52145.03;;;-145.37;73.31
13486;BME280;6815;59.336;17.998;2023-04-03T03:07:48;52173.00;;;-145.37;72.75
13486;BME280;6815;59.336;17.998;2023-04-03T03:10:14;52151.03;;;-145.37;72.77
13486;BME280;6815;59.336;17.998;2023-04-03T03:12:39;52169.00;;;-145.37;72.95
13486;BME280;6815;59.336;17.998;2023-04-03T03:15:06;52119.09;;;-145.37;72.52
13486;BME280;6815;59.336;17.998;2023-04-03T03:17:31;52147.03;;;-145.37;71.77
13486;BME280;6815;59.336;17.998;2023-04-03T03:19:57;52149.03;;;-145.37;72.25
13486;BME280;6815;59.336;17.998;2023-04-03T03:22:22;52188.97;;;-145.37;72.58
13486;BME280;6815;59.336;17.998;2023-04-03T03:24:48;52151.03;;;-145.37;73.25
13486;BME280;6815;59.336;17.998;2023-04-03T03:27:13;52161.03;;;-145.37;72.47
13486;BME280;6815;59.336;17.998;2023-04-03T03:29:41;52161.03;;;-145.37;72.62
13486;BME280;6815;59.336;17.998;2023-04-03T03:32:07;52157.03;;;-145.37;72.97
13486;BME280;6815;59.336;17.998;2023-04-03T03:34:32;52135.06;;;-145.37;72.96
13486;BME280;6815;59.336;17.998;2023-04-03T03:36:57;52151.03;;;-145.37;73.25
13486;BME280;6815;59.336;17.998;2023-04-03T03:39:23;52163.00;;;-145.37;72.94
13486;BME280;6815;59.336;17.998;2023-04-03T03:41:48;52153.03;;;-145.37;73.01
13486;BME280;6815;59.336;17.998;2023-04-03T03:44:14;52115.09;;;-145.37;73.47
13486;BME280;6815;59.336;17.998;2023-04-03T03:46:40;52165.00;;;-145.37;73.05
13486;BME280;6815;59.336;17.998;2023-04-03T03:49:06;52171.00;;;-145.37;73.53
13486;BME280;6815;59.336;17.998;2023-04-03T03:51:31;52163.00;;;-145.37;74.36
13486;BME280;6815;59.336;17.998;2023-04-03T03:53:57;52171.00;;;-145.37;73.83
13486;BME280;6815;59.336;17.998;2023-04-03T03:56:22;52133.06;;;-145.37;73.92
13486;BME280;6815;59.336;17.998;2023-04-03T03:58:47;52184.97;;;-145.37;74.19
13486;BME280;6815;59.336;17.998;2023-04-03T04:01:14;52149.03;;;-145.37;74.28
13486;BME280;6815;59.336;17.998;2023-04-03T04:03:40;52155.03;;;-145.37;74.07
13486;BME280;6815;59.336;17.998;2023-04-03T04:06:06;52161.03;;;-145.37;74.29
13486;BME280;6815;59.336;17.998;2023-04-03T04:08:31;52139.06;;;-145.37;74.19
13486;BME280;6815;59.336;17.998;2023-04-03T04:10:57;52145.03;;;-145.37;74.03
13486;BME280;6815;59.336;17.998;2023-04-03T04:13:23;52123.09;;;-145.37;74.17
13486;BME280;6815;59.336;17.998;2023-04-03T04:15:49;52151.03;;;-145.37;74.94
13486;BME280;6815;59.336;17.998;2023-04-03T04:18:14;52151.03;;;-145.37;74.69
13486;BME280;6815;59.336;17.998;2023-04-03T04:20:40;52121.09;;;-145.37;75.26
13486;BME280;6815;59.336;17.998;2023-04-03T04:23:05;52186.97;;;-145.37;74.67
13486;BME280;6815;59.336;17.998;2023-04-03T04:25:31;52139.06;;;-145.37;74.39
13486;BME280;6815;59.336;17.998;2023-04-03T04:27:56;52133.06;;;-145.37;74.55
13486;BME280;6815;59.336;17.998;2023-04-03T04:30:23;52157.03;;;-145.37;74.75
13486;BME280;6815;59.336;17.998;2023-04-03T04:32:49;52135.06;;;-145.37;74.67
13486;BME280;6815;59.336;17.998;2023-04-03T04:35:15;52125.09;;;-145.37;74.39
13486;BME280;6815;59.336;17.998;2023-04-03T04:37:43;52141.06;;;-145.37;74.37
13486;BME280;6815;59.336;17.998;2023-04-03T04:40:09;52159.03;;;-145.37;74.85
13486;BME280;6815;59.336;17.998;2023-04-03T04:42:35;52159.03;;;-145.37;74.46
13486;BME280;6815;59.336;17.998;2023-04-03T04:45:00;52147.03;;;-145.37;74.42
13486;BME280;6815;59.336;17.998;2023-04-03T04:47:28;52173.00;;;-145.37;74.63
13486;BME280;6815;59.336;17.998;2023-04-03T04:49:53;52125.09;;;-145.37;74.56
13486;BME280;6815;59.336;17.998;2023-04-03T04:52:19;52137.06;;;-145.37;74.32
13486;BME280;6815;59.336;17.998;2023-04-03T04:54:45;52129.06;;;-145.37;74.97
13486;BME280;6815;59.336;17.998;2023-04-03T04:57:10;52216.91;;;-145.37;74.61
13486;BME280;6815;59.336;17.998;2023-04-03T04:59:38;52149.03;;;-145.37;74.57
13486;BME280;6815;59.336;17.998;2023-04-03T05:02:04;52180.97;;;-145.37;73.97
13486;BME280;6815;59.336;17.998;2023-04-03T05:04:29;52167.00;;;-145.37;74.50
13486;BME280;6815;59.336;17.998;2023-04-03T05:06:55;52161.03;;;-145.37;74.21
13486;BME280;6815;59.336;17.998;2023-04-03T05:09:21;52149.03;;;-145.37;74.38
13486;BME280;6815;59.336;17.998;2023-04-03T05:11:47;52169.00;;;-145.37;74.05
13486;BME280;6815;59.336;17.998;2023-04-03T05:14:12;52177.00;;;-145.37;75.23
13486;BME280;6815;59.336;17.998;2023-04-03T05:16:38;52169.00;;;-145.37;74.79
13486;BME280;6815;59.336;17.998;2023-04-03T05:19:03;52137.06;;;-145.37;75.79
13486;BME280;6815;59.336;17.998;2023-04-03T05:21:29;52139.06;;;-145.37;75.43
13486;BME280;6815;59.336;17.998;2023-04-03T05:24:01;52153.03;;;-145.37;74.88
13486;BME280;6815;59.336;17.998;2023-04-03T05:26:33;52173.00;;;-145.37;75.12
13486;BME280;6815;59.336;17.998;2023-04-03T05:28:59;52161.03;;;-145.37;75.00
13486;BME280;6815;59.336;17.998;2023-04-03T05:31:25;52159.03;;;-145.37;74.97
13486;BME280;6815;59.336;17.998;2023-04-03T05:33:50;52161.03;;;-145.37;75.36
13486;BME280;6815;59.336;17.998;2023-04-03T05:36:16;52167.00;;;-145.37;75.16
13486;BME280;6815;59.336;17.998;2023-04-03T05:38:42;52165.00;;;-145.37;75.00
13486;BME280;6815;59.336;17.998;2023-04-03T05:41:09;52163.00;;;-145.37;75.38
13486;BME280;6815;59.336;17.998;2023-04-03T05:43:35;52151.03;;;-145.37;75.43
13486;BME280;6815;59.336;17.998;2023-04-03T05:46:03;52141.06;;;-145.37;74.93
13486;BME280;6815;59.336;17.998;2023-04-03T05:48:30;52139.06;;;-145.37;74.74
13486;BME280;6815;59.336;17.998;2023-04-03T05:50:56;52175.00;;;-145.37;74.91
13486;BME280;6815;59.336;17.998;2023-04-03T05:53:25;52165.00;;;-145.37;74.87
13486;BME280;6815;59.336;17.998;2023-04-03T05:55:52;52165.00;;;-145.37;75.43
13486;BME280;6815;59.336;17.998;2023-04-03T05:58:18;52103.13;;;-145.37;75.16
13486;BME280;6815;59.336;17.998;2023-04-03T06:00:44;52165.00;;;-145.37;74.92
13486;BME280;6815;59.336;17.998;2023-04-03T06:03:10;52161.03;;;-145.37;75.35
13486;BME280;6815;59.336;17.998;2023-04-03T06:05:36;52169.00;;;-145.37;75.16
13486;BME280;6815;59.336;17.998;2023-04-03T06:08:01;52151.03;;;-145.37;74.80
13486;BME280;6815;59.336;17.998;2023-04-03T06:10:28;52169.00;;;-145.37;75.71
13486;BME280;6815;59.336;17.998;2023-04-03T06:12:53;52165.00;;;-145.37;76.18
13486;BME280;6815;59.336;17.998;2023-04-03T06:15:19;52173.00;;;-145.37;75.96
13486;BME280;6815;59.336;17.998;2023-04-03T06:17:45;52135.06;;;-145.37;76.32
13486;BME280;6815;59.336;17.998;2023-04-03T06:20:11;52180.97;;;-145.37;76.21
13486;BME280;6815;59.336;17.998;2023-04-03T06:22:37;52184.97;;;-145.37;75.93
13486;BME280;6815;59.336;17.998;2023-04-03T06:25:03;52157.03;;;-145.37;75.94
13486;BME280;6815;59.336;17.998;2023-04-03T06:27:29;52188.97;;;-145.37;76.08
13486;BME280;6815;59.336;17.998;2023-04-03T06:29:54;52139.06;;;-145.37;76.40
13486;BME280;6815;59.336;17.998;2023-04-03T06:32:20;52163.00;;;-145.37;76.81
13486;BME280;6815;59.336;17.998;2023-04-03T06:34:45;52202.94;;;-145.37;77.10
13486;BME280;6815;59.336;17.998;2023-04-03T06:37:20;52177.00;;;-145.37;76.40
13486;BME280;6815;59.336;17.998;2023-04-03T06:39:45;52167.00;;;-145.37;76.54
13486;BME280;6815;59.336;17.998;2023-04-03T06:42:11;52196.94;;;-145.37;76.91
13486;BME280;6815;59.336;17.998;2023-04-03T06:44:36;52175.00;;;-145.37;77.18
13486;BME280;6815;59.336;17.998;2023-04-03T06:47:02;52163.00;;;-145.37;77.01
13486;BME280;6815;59.336;17.998;2023-04-03T06:49:28;52143.06;;;-145.37;76.71
13486;BME280;6815;59.336;17.998;2023-04-03T06:51:54;52157.03;;;-145.37;76.96
13486;BME280;6815;59.336;17.998;2023-04-03T06:54:20;52192.97;;;-145.37;76.87
13486;BME280;6815;59.336;17.998;2023-04-03T06:56:46;52177.00;;;-145.37;76.81
13486;BME280;6815;59.336;17.998;2023-04-03T06:59:12;52177.00;;;-145.37;76.91
13486;BME280;6815;59.336;17.998;2023-04-03T07:01:41;52184.97;;;-145.37;77.07
13486;BME280;6815;59.336;17.998;2023-04-03T07:04:07;52186.97;;;-145.37;76.85
13486;BME280;6815;59.336;17.998;2023-04-03T07:06:33;52171.00;;;-145.37;76.74
13486;BME280;6815;59.336;17.998;2023-04-03T07:08:59;52169.00;;;-145.37;76.59
13486;BME280;6815;59.336;17.998;2023-04-03T07:11:25;52202.94;;;-145.37;76.21
13486;BME280;6815;59.336;17.998;2023-04-03T07:13:52;52220.91;;;-145.37;76.10
13486;BME280;6815;59.336;17.998;2023-04-03T07:16:18;52131.06;;;-145.37;75.91
13486;BME280;6815;59.336;17.998;2023-04-03T07:18:44;52178.97;;;-145.37;75.84
13486;BME280;6815;59.336;17.998;2023-04-03T07:21:11;52139.06;;;-145.37;75.68
13486;BME280;6815;59.336;17.998;2023-04-03T07:23:37;52151.03;;;-145.37;75.75
13486;BME280;6815;59.336;17.998;2023-04-03T07:26:03;52200.94;;;-145.37;75.60
13486;BME280;6815;59.336;17.998;2023-04-03T07:28:28;52200.94;;;-145.37;74.98
13486;BME280;6815;59.336;17.998;2023-04-03T07:31:01;52159.03;;;-145.37;74.54
13486;BME280;6815;59.336;17.998;2023-04-03T07:33:27;52182.97;;;-145.37;74.35
13486;BME280;6815;59.336;17.998;2023-04-03T07:35:53;52167.00;;;-145.37;73.99
13486;BME280;6815;59.336;17.998;2023-04-03T07:38:18;52180.97;;;-145.37;73.86
13486;BME280;6815;59.336;17.998;2023-04-03T07:40:48;52117.09;;;-145.37;73.37
13486;BME280;6815;59.336;17.998;2023-04-03T07:43:15;52194.94;;;-145.37;73.19
13486;BME280;6815;59.336;17.998;2023-04-03T07:45:41;52198.94;;;-145.37;72.77
13486;BME280;6815;59.336;17.998;2023-04-03T07:48:09;52177.00;;;-145.37;72.11
13486;BME280;6815;59.336;17.998;2023-04-03T07:50:35;52190.97;;;-145.37;72.00
13486;BME280;6815;59.336;17.998;2023-04-03T07:53:01;52169.00;;;-145.37;72.00
13486;BME280;6815;59.336;17.998;2023-04-03T07:55:27;52155.03;;;-145.37;71.95
13486;BME280;6815;59.336;17.998;2023-04-03T07:57:52;52188.97;;;-145.37;71.34
13486;BME280;6815;59.336;17.998;2023-04-03T08:00:18;52204.94;;;-145.37;71.06
13486;BME280;6815;59.336;17.998;2023-04-03T08:02:44;52192.97;;;-145.37;70.82
13486;BME280;6815;59.336;17.998;2023-04-03T08:05:16;52165.00;;;-145.37;69.66
13486;BME280;6815;59.336;17.998;2023-04-03T08:07:42;52147.03;;;-145.37;69.28
13486;BME280;6815;59.336;17.998;2023-04-03T08:10:08;52171.00;;;-145.37;68.69
13486;BME280;6815;59.336;17.998;2023-04-03T08:12:33;52155.03;;;-145.37;68.43
13486;BME280;6815;59.336;17.998;2023-04-03T08:14:59;52228.88;;;-145.37;68.60
13486;BME280;6815;59.336;17.998;2023-04-03T08:17:26;52196.94;;;-145.37;68.05
13486;BME280;6815;59.336;17.998;2023-04-03T08:19:51;52167.00;;;-145.37;66.72
13486;BME280;6815;59.336;17.998;2023-04-03T08:22:17;52196.94;;;-145.37;66.54
13486;BME280;6815;59.336;17.998;2023-04-03T08:24:42;52157.03;;;-145.37;66.08
13486;BME280;6815;59.336;17.998;2023-04-03T08:27:08;52200.94;;;-145.37;65.32
13486;BME280;6815;59.336;17.998;2023-04-03T08:29:33;52190.97;;;-145.37;65.26
13486;BME280;6815;59.336;17.998;2023-04-03T08:31:59;52173.00;;;-145.37;63.77
13486;BME280;6815;59.336;17.998;2023-04-03T08:34:25;52161.03;;;-145.37;63.14
13486;BME280;6815;59.336;17.998;2023-04-03T08:36:50;52171.00;;;-145.37;61.85
13486;BME280;6815;59.336;17.998;2023-04-03T08:39:16;52180.97;;;-145.37;61.42
13486;BME280;6815;59.336;17.998;2023-04-03T08:41:43;52212.91;;;-145.37;61.12
13486;BME280;6815;59.336;17.998;2023-04-03T08:47:02;52244.84;;;-145.37;61.87
13486;BME280;6815;59.336;17.998;2023-04-03T08:54:56;52186.97;;;-145.37;62.51
13486;BME280;6815;59.336;17.998;2023-04-03T08:57:43;52216.91;;;-145.37;60.58
13486;BME280;6815;59.336;17.998;2023-04-03T09:00:19;52214.91;;;-145.37;60.61
13486;BME280;6815;59.336;17.998;2023-04-03T09:02:51;52177.00;;;-145.37;60.40
13486;BME280;6815;59.336;17.998;2023-04-03T09:05:19;52167.00;;;-145.37;59.94
13486;BME280;6815;59.336;17.998;2023-04-03T09:07:58;52175.00;;;-145.37;59.20
13486;BME280;6815;59.336;17.998;2023-04-03T09:10:28;52173.00;;;-145.37;59.05
13486;BME280;6815;59.336;17.998;2023-04-03T09:15:27;52208.94;;;-145.37;59.90
13486;BME280;6815;59.336;17.998;2023-04-03T09:18:30;52171.00;;;-145.37;60.77
13486;BME280;6815;59.336;17.998;2023-04-03T09:23:46;52188.97;;;-145.37;59.31
13486;BME280;6815;59.336;17.998;2023-04-03T09:28:46;52173.00;;;-145.37;58.40
13486;BME280;6815;59.336;17.998;2023-04-03T09:31:21;52208.94;;;-145.37;57.56
13486;BME280;6815;59.336;17.998;2023-04-03T09:33:50;52206.94;;;-145.37;57.18
13486;BME280;6815;59.336;17.998;2023-04-03T09:36:46;52196.94;;;-145.37;56.53
13486;BME280;6815;59.336;17.998;2023-04-03T09:39:18;52200.94;;;-145.37;55.65
13486;BME280;6815;59.336;17.998;2023-04-03T09:42:15;52206.94;;;-145.37;55.14
13486;BME280;6815;59.336;17.998;2023-04-03T09:44:54;52163.00;;;-145.37;53.71
13486;BME280;6815;59.336;17.998;2023-04-03T09:52:38;52180.97;;;-145.37;51.18
13486;BME280;6815;59.336;17.998;2023-04-03T09:55:08;52182.97;;;-145.37;50.62
13486;BME280;6815;59.336;17.998;2023-04-03T09:57:35;52204.94;;;-145.37;50.43
13486;BME280;6815;59.336;17.998;2023-04-03T10:00:02;52155.03;;;-145.37;50.34
13486;BME280;6815;59.336;17.998;2023-04-03T10:05:03;52206.94;;;-145.37;49.55
13486;BME280;6815;59.336;17.998;2023-04-03T10:07:32;52192.97;;;-145.37;49.17
13486;BME280;6815;59.336;17.998;2023-04-03T10:10:02;52184.97;;;-145.37;49.08
13486;BME280;6815;59.336;17.998;2023-04-03T10:12:40;52202.94;;;-145.37;49.01
13486;BME280;6815;59.336;17.998;2023-04-03T10:15:16;52188.97;;;-145.37;48.27
13486;BME280;6815;59.336;17.998;2023-04-03T10:17:53;52188.97;;;-145.37;47.92
13486;BME280;6815;59.336;17.998;2023-04-03T10:25:35;52198.94;;;-145.37;48.53
13486;BME280;6815;59.336;17.998;2023-04-03T10:28:11;52196.94;;;-145.37;47.75
13486;BME280;6815;59.336;17.998;2023-04-03T10:30:52;52208.94;;;-145.37;47.46
13486;BME280;6815;59.336;17.998;2023-04-03T10:38:54;52182.97;;;-145.37;46.68
13486;BME280;6815;59.336;17.998;2023-04-03T10:46:55;52198.94;;;-145.37;46.00
13486;BME280;6815;59.336;17.998;2023-04-03T10:52:24;52192.97;;;-145.37;45.13
13486;BME280;6815;59.336;17.998;2023-04-03T10:57:23;52210.91;;;-145.37;44.74
13486;BME280;6815;59.336;17.998;2023-04-03T10:59:51;52208.94;;;-145.37;44.83
13486;BME280;6815;59.336;17.998;2023-04-03T11:02:26;52173.00;;;-145.37;45.17
13486;BME280;6815;59.336;17.998;2023-04-03T11:08:05;52145.03;;;-145.37;45.54
13486;BME280;6815;59.336;17.998;2023-04-03T11:10:56;52190.97;;;-145.37;45.41
13486;BME280;6815;59.336;17.998;2023-04-03T11:13:43;52196.94;;;-145.37;45.52
13486;BME280;6815;59.336;17.998;2023-04-03T11:16:39;52169.00;;;-145.37;45.89
13486;BME280;6815;59.336;17.998;2023-04-03T11:24:26;52188.97;;;-145.37;45.22
13486;BME280;6815;59.336;17.998;2023-04-03T11:26:56;52163.00;;;-145.37;45.02
13486;BME280;6815;59.336;17.998;2023-04-03T11:29:28;52202.94;;;-145.37;45.31
13486;BME280;6815;59.336;17.998;2023-04-03T11:34:44;52196.94;;;-145.37;44.40
13486;BME280;6815;59.336;17.998;2023-04-03T11:37:22;52165.00;;;-145.37;43.95
13486;BME280;6815;59.336;17.998;2023-04-03T11:39:58;52171.00;;;-145.37;43.89
13486;BME280;6815;59.336;17.998;2023-04-03T11:47:49;52206.94;;;-145.37;43.31
13486;BME280;6815;59.336;17.998;2023-04-03T11:53:44;52220.91;;;-145.37;40.37
13486;BME280;6815;59.336;17.998;2023-04-03T12:01:51;52178.97;;;-145.37;39.11
13486;BME280;6815;59.336;17.998;2023-04-03T12:04:18;52228.88;;;-145.37;38.61
13486;BME280;6815;59.336;17.998;2023-04-03T12:12:29;52200.94;;;-145.37;38.62
13486;BME280;6815;59.336;17.998;2023-04-03T12:14:55;52173.00;;;-145.37;38.93
13486;BME280;6815;59.336;17.998;2023-04-03T12:17:36;52180.97;;;-145.37;37.98
13486;BME280;6815;59.336;17.998;2023-04-03T12:23:22;52182.97;;;-145.37;37.75
13486;BME280;6815;59.336;17.998;2023-04-03T12:25:50;52196.94;;;-145.37;37.62
13486;BME280;6815;59.336;17.998;2023-04-03T12:28:16;52208.94;;;-145.37;35.54
13486;BME280;6815;59.336;17.998;2023-04-03T12:30:42;52194.94;;;-145.37;33.99
13486;BME280;6815;59.336;17.998;2023-04-03T12:35:57;52196.94;;;-145.37;34.98
13486;BME280;6815;59.336;17.998;2023-04-03T12:38:41;52178.97;;;-145.37;34.70
13486;BME280;6815;59.336;17.998;2023-04-03T12:41:51;52192.97;;;-145.37;35.14
13486;BME280;6815;59.336;17.998;2023-04-03T12:44:38;52186.97;;;-145.37;34.76
13486;BME280;6815;59.336;17.998;2023-04-03T12:47:22;52192.97;;;-145.37;34.84
13486;BME280;6815;59.336;17.998;2023-04-03T12:49:50;52184.97;;;-145.37;35.18
13486;BME280;6815;59.336;17.998;2023-04-03T12:55:00;52184.97;;;-145.37;34.28
13486;BME280;6815;59.336;17.998;2023-04-03T12:57:30;52208.94;;;-145.37;34.45
13486;BME280;6815;59.336;17.998;2023-04-03T12:59:58;52196.94;;;-145.37;35.39
13486;BME280;6815;59.336;17.998;2023-04-03T13:02:32;52212.91;;;-145.37;35.54
13486;BME280;6815;59.336;17.998;2023-04-03T13:05:09;52169.00;;;-145.37;35.34
13486;BME280;6815;59.336;17.998;2023-04-03T13:07:39;52234.88;;;-145.37;35.57
13486;BME280;6815;59.336;17.998;2023-04-03T13:13:08;52188.97;;;-145.37;36.91
13486;BME280;6815;59.336;17.998;2023-04-03T13:15:44;52216.91;;;-145.37;37.37
13486;BME280;6815;59.336;17.998;2023-04-03T13:18:31;52198.94;;;-145.37;37.75
13486;BME280;6815;59.336;17.998;2023-04-03T13:21:13;52192.97;;;-145.37;37.41
13486;BME280;6815;59.336;17.998;2023-04-03T13:23:43;52182.97;;;-145.37;37.38
13486;BME280;6815;59.336;17.998;2023-04-03T13:26:10;52190.97;;;-145.37;37.44
13486;BME280;6815;59.336;17.998;2023-04-03T13:28:37;52184.97;;;-145.37;37.86
13486;BME280;6815;59.336;17.998;2023-04-03T13:31:17;52192.97;;;-145.37;37.65
13486;BME280;6815;59.336;17.998;2023-04-03T13:39:39;52226.91;;;-145.37;37.97
13486;BME280;6815;59.336;17.998;2023-04-03T13:42:24;52161.03;;;-145.37;37.57
13486;BME280;6815;59.336;17.998;2023-04-03T13:47:47;52184.97;;;-145.37;37.88
13486;BME280;6815;59.336;17.998;2023-04-03T13:50:26;52186.97;;;-145.37;37.62
13486;BME280;6815;59.336;17.998;2023-04-03T13:52:55;52180.97;;;-145.37;37.80
13486;BME280;6815;59.336;17.998;2023-04-03T13:55:30;52196.94;;;-145.37;37.34
13486;BME280;6815;59.336;17.998;2023-04-03T13:57:59;52224.91;;;-145.37;37.39
13486;BME280;6815;59.336;17.998;2023-04-03T14:00:33;52186.97;;;-145.37;37.99
13486;BME280;6815;59.336;17.998;2023-04-03T14:02:59;52175.00;;;-145.37;37.53
13486;BME280;6815;59.336;17.998;2023-04-03T14:05:25;52210.91;;;-145.37;38.23
13486;BME280;6815;59.336;17.998;2023-04-03T14:07:55;52200.94;;;-145.37;37.98
13486;BME280;6815;59.336;17.998;2023-04-03T14:10:21;52218.91;;;-145.37;37.76
13486;BME280;6815;59.336;17.998;2023-04-03T14:12:47;52220.91;;;-145.37;37.60
13486;BME280;6815;59.336;17.998;2023-04-03T14:15:20;52157.03;;;-145.37;37.41
13486;BME280;6815;59.336;17.998;2023-04-03T14:17:49;52161.03;;;-145.37;37.23
13486;BME280;6815;59.336;17.998;2023-04-03T14:20:18;52224.91;;;-145.37;37.39
13486;BME280;6815;59.336;17.998;2023-04-03T14:22:49;52202.94;;;-145.37;37.34
13486;BME280;6815;59.336;17.998;2023-04-03T14:25:17;52230.88;;;-145.37;37.77
13486;BME280;6815;59.336;17.998;2023-04-03T14:27:46;52186.97;;;-145.37;37.81
13486;BME280;6815;59.336;17.998;2023-04-03T14:30:20;52194.94;;;-145.37;37.70
13486;BME280;6815;59.336;17.998;2023-04-03T14:32:47;52208.94;;;-145.37;36.70
13486;BME280;6815;59.336;17.998;2023-04-03T14:35:16;52208.94;;;-145.37;36.78